Terminal Aerodrome Forecast
Issued by NWS

Home | Current Version | Previous Version | Text Only | Print | Product List | Glossary On
Versions: 1 2 3 4 5 6 7 8 9 10 11 12 13
541
FTUS44 KJAN 291153
TAFHKS
TAF
KHKS 291153Z 2912/3012 15007KT P6SM BKN016
     FM291500 16013G22KT P6SM SCT040
     FM300400 16012G20KT P6SM BKN025=

USA.gov is the U.S. government's official web portal to all federal, state and local government web resources and services.